createdAt,value
2019-04-29T04:24:50.776Z,6.33
2019-04-29T04:27:32.508Z,2.90
2019-04-29T04:30:14.378Z,3.33
2019-04-29T04:32:56.308Z,4.73
2019-04-29T04:35:38.640Z,2.90
2019-04-29T04:38:20.656Z,5.80
2019-04-29T04:41:07.953Z,2.93
2019-04-29T04:43:50.080Z,4.40
2019-04-29T04:46:32.309Z,3.20
2019-04-29T04:49:15.986Z,2.90
2019-04-29T04:51:58.079Z,4.17
2019-04-29T04:54:40.289Z,4.60
2019-04-29T04:57:22.935Z,3.33
2019-04-29T05:00:07.521Z,4.23
2019-04-29T05:02:49.235Z,3.03
2019-04-29T05:05:30.939Z,3.30
2019-04-29T05:08:12.947Z,3.47
2019-04-29T05:10:54.792Z,3.87
2019-04-29T05:13:36.829Z,3.73
2019-04-29T05:16:18.904Z,3.47
2019-04-29T05:19:00.755Z,3.77
2019-04-29T05:21:42.415Z,4.40
2019-04-29T05:24:24.338Z,4.23
2019-04-29T05:27:07.093Z,4.00
2019-04-29T05:29:49.172Z,3.53
2019-04-29T05:32:31.498Z,3.20
2019-04-29T05:35:15.089Z,5.10
2019-04-29T05:41:07.784Z,16.57
2019-04-29T05:46:50.374Z,6.17
2019-04-29T05:55:40.236Z,3.90
2019-04-29T05:58:22.396Z,5.73
2019-04-29T06:04:03.109Z,5.97
2019-04-29T06:06:33.457Z,4.90
2019-04-29T06:09:23.161Z,3.70
2019-04-29T06:12:05.516Z,5.37
2019-04-29T06:14:35.844Z,5.47
2019-04-29T06:17:18.183Z,5.30
2019-04-29T06:20:00.121Z,13.13
2019-04-29T06:22:43.529Z,8.40
2019-04-29T06:25:25.718Z,6.07
2019-04-29T06:28:07.537Z,8.13
2019-04-29T06:30:50.253Z,9.83
2019-04-29T06:33:33.400Z,9.90
2019-04-29T06:36:15.367Z,5.30
2019-04-29T06:38:57.269Z,4.77
2019-04-29T06:41:40.562Z,4.30
2019-04-29T06:44:22.465Z,5.23
2019-04-29T06:47:04.196Z,4.87
2019-04-29T06:49:46.278Z,6.50
2019-04-29T06:52:28.361Z,4.17
2019-04-29T06:55:10.749Z,4.93
2019-04-29T06:57:52.621Z,3.93
2019-04-29T07:00:34.917Z,5.40
2019-04-29T07:03:20.837Z,5.67
2019-04-29T07:06:00.890Z,4.83
2019-04-29T07:08:43.125Z,4.30
2019-04-29T07:11:25.246Z,5.53
2019-04-29T07:14:07.478Z,4.80
2019-04-29T07:16:50.497Z,4.53
2019-04-29T07:19:32.469Z,4.83
2019-04-29T07:22:14.618Z,6.17
2019-04-29T07:24:57.124Z,5.23
2019-04-29T07:27:43.107Z,5.53
2019-04-29T07:30:22.605Z,5.33
2019-04-29T07:33:05.616Z,5.00
2019-04-29T07:35:49.591Z,4.80
2019-04-29T07:38:41.301Z,5.63
2019-04-29T07:41:18.951Z,3.73
2019-04-29T07:43:59.316Z,3.80
2019-04-29T07:49:40.819Z,4.90
2019-04-29T07:52:23.007Z,4.23
2019-04-29T07:55:05.387Z,4.83
2019-04-29T07:57:47.792Z,5.07
2019-04-29T08:00:31.208Z,4.20
2019-04-29T08:03:13.400Z,5.77
2019-04-29T08:05:55.375Z,4.90
2019-04-29T08:08:37.650Z,4.37
2019-04-29T08:11:19.556Z,6.53
2019-04-29T08:14:01.567Z,5.73
2019-04-29T08:16:43.440Z,4.60
2019-04-29T08:19:29.481Z,3.93
2019-04-29T08:22:09.112Z,3.93
2019-04-29T08:24:52.216Z,4.63
2019-04-29T08:27:40.536Z,5.10
2019-04-29T08:30:18.354Z,4.70
2019-04-29T08:33:00.242Z,6.93
2019-04-29T08:35:42.205Z,6.07
2019-04-29T08:38:24.141Z,3.83
2019-04-29T08:40:54.524Z,6.13
2019-04-29T08:44:15.775Z,5.33
2019-04-29T08:46:56.406Z,5.37
2019-04-29T08:49:36.852Z,4.60
2019-04-29T08:52:19.205Z,4.47
2019-04-29T08:55:00.968Z,4.80
2019-04-29T08:57:43.147Z,5.87
2019-04-29T09:00:25.386Z,5.33
2019-04-29T09:03:07.250Z,6.43
2019-04-29T09:06:04.320Z,6.10
2019-04-29T09:08:34.565Z,3.57
2019-04-29T09:11:16.629Z,6.00
2019-04-29T09:13:58.822Z,5.30
2019-04-29T09:16:41.305Z,6.67
2019-04-29T09:19:23.578Z,5.00
2019-04-29T09:22:07.532Z,5.67
2019-04-29T09:25:09.501Z,4.33
2019-04-29T09:27:52.460Z,7.60
2019-04-29T09:30:36.922Z,4.60
2019-04-29T09:33:18.956Z,4.57
2019-04-29T09:36:01.144Z,5.73
2019-04-29T09:38:43.598Z,8.53
2019-04-29T09:44:45.208Z,5.13
2019-04-29T09:47:30.492Z,6.23
2019-04-29T09:50:13.100Z,5.53
2019-04-29T09:52:55.290Z,4.27
2019-04-29T09:55:40.066Z,5.20
2019-04-29T09:58:21.151Z,6.47
2019-04-29T10:01:21.895Z,6.10
2019-04-29T10:07:10.754Z,4.80
2019-04-29T10:09:57.286Z,5.40
2019-04-29T10:12:37.049Z,8.27
2019-04-29T10:15:21.980Z,4.47
2019-04-29T10:21:10.679Z,5.27
2019-04-29T10:23:52.603Z,3.60
2019-04-29T10:26:35.118Z,7.33
2019-04-29T10:29:20.311Z,2.87
2019-04-29T10:31:50.775Z,4.27
2019-04-29T10:34:33.140Z,3.90
2019-04-29T10:37:16.059Z,4.00
2019-04-29T10:40:17.117Z,4.53
2019-04-29T10:43:18.172Z,3.17
2019-04-29T10:46:21.658Z,3.00
2019-04-29T10:52:04.522Z,4.93
2019-04-29T10:54:46.628Z,2.60
2019-04-29T10:57:29.377Z,2.27
2019-04-29T11:03:00.128Z,5.57
2019-04-29T11:05:32.084Z,4.63
2019-04-29T11:08:06.477Z,3.73
2019-04-29T11:10:36.758Z,3.87
2019-04-29T11:13:19.169Z,2.70
2019-04-29T11:15:51.224Z,2.50
2019-04-29T11:18:27.402Z,5.87
2019-04-29T11:20:57.670Z,2.03
2019-04-29T11:23:36.704Z,3.27
2019-04-29T11:26:25.995Z,3.73
2019-04-29T11:28:58.251Z,3.83
2019-04-29T11:31:28.680Z,2.90
2019-04-29T11:34:20.946Z,2.93
2019-04-29T11:36:52.273Z,4.67
2019-04-29T11:39:34.363Z,3.80
2019-04-29T11:42:07.871Z,5.10
2019-04-29T11:44:38.185Z,9.73
2019-04-29T11:47:25.111Z,13.30
2019-04-29T11:53:08.500Z,7.97
2019-04-29T11:55:52.513Z,2.77
2019-04-29T12:01:50.835Z,3.27
2019-04-29T12:04:41.985Z,6.30
2019-04-29T12:07:22.633Z,4.23
2019-04-29T12:10:06.662Z,4.53
2019-04-29T12:12:49.095Z,5.90
2019-04-29T12:18:37.970Z,12.53
2019-04-29T12:21:25.647Z,4.50
2019-04-29T12:24:09.045Z,5.77
2019-04-29T12:26:51.049Z,6.93
2019-04-29T12:29:32.894Z,3.77
2019-04-29T12:35:51.579Z,4.57
2019-04-29T12:38:51.361Z,2.80
2019-04-29T12:41:52.588Z,3.37
2019-04-29T12:44:44.481Z,3.23
2019-04-29T12:47:36.336Z,3.10
2019-04-29T12:50:21.691Z,3.27
2019-04-29T12:53:02.624Z,8.27
2019-04-29T12:55:50.276Z,9.37
2019-04-29T12:58:29.455Z,4.70
2019-04-29T13:04:37.856Z,5.00
2019-04-29T13:07:38.891Z,2.40
2019-04-29T13:10:42.517Z,4.43
2019-04-29T13:13:24.571Z,4.97
2019-04-29T13:16:25.545Z,5.20
2019-04-29T13:19:32.074Z,5.60
2019-04-29T13:22:15.474Z,3.83
2019-04-29T13:24:57.277Z,5.50
2019-04-29T13:27:39.285Z,3.53
2019-04-29T13:30:21.374Z,6.73
2019-04-29T13:33:05.943Z,6.87
2019-04-29T13:35:35.519Z,7.40
2019-04-29T13:38:24.892Z,4.27
2019-04-29T13:41:13.634Z,4.00
2019-04-29T13:43:52.145Z,3.27
2019-04-29T13:46:53.980Z,6.67
2019-04-29T13:49:48.724Z,6.50
2019-04-29T13:52:32.952Z,5.30
2019-04-29T13:55:17.635Z,5.50
2019-04-29T13:57:58.823Z,5.50
2019-04-29T14:01:05.997Z,5.47
2019-04-29T14:03:59.354Z,9.37
2019-04-29T14:06:56.133Z,6.63
2019-04-29T14:09:26.966Z,5.07
2019-04-29T14:12:46.403Z,5.47
2019-04-29T14:14:58.449Z,7.40
2019-04-29T14:17:31.387Z,4.13
2019-04-29T14:19:58.470Z,4.83
2019-04-29T14:22:28.969Z,2.83
2019-04-29T14:25:18.324Z,3.30
2019-04-29T14:27:48.704Z,5.90
2019-04-29T14:30:20.899Z,5.60
2019-04-29T14:32:54.983Z,3.77
2019-04-29T14:35:48.178Z,5.33
2019-04-29T14:38:23.888Z,4.43
2019-04-29T14:44:09.156Z,5.63
2019-04-29T14:49:58.679Z,6.03
2019-04-29T14:52:44.740Z,7.97
2019-04-29T14:55:25.139Z,5.30
2019-04-29T14:57:54.852Z,6.07
2019-04-29T15:03:59.165Z,15.67
2019-04-29T15:06:42.226Z,14.47
2019-04-29T15:09:24.507Z,11.93
2019-04-29T15:15:34.222Z,9.90
2019-04-29T15:18:47.690Z,17.97
2019-04-29T15:21:51.440Z,16.97
2019-04-29T15:24:34.419Z,15.37
2019-04-29T15:27:20.100Z,9.90
2019-04-29T15:30:03.647Z,6.83
2019-04-29T15:32:47.475Z,6.77
2019-04-29T15:35:31.200Z,6.97
2019-04-29T15:38:13.544Z,6.13
2019-04-29T15:40:55.588Z,5.50
2019-04-29T15:43:47.215Z,8.77
2019-04-29T15:46:23.654Z,10.77
2019-04-29T15:49:05.684Z,10.37
2019-04-29T15:51:49.342Z,9.40
2019-04-29T15:54:30.094Z,10.93
2019-04-29T15:57:15.474Z,7.43
2019-04-29T15:59:59.762Z,16.93
2019-04-29T16:02:42.945Z,10.47
2019-04-29T16:06:04.407Z,8.27
2019-04-29T16:08:45.668Z,8.33
2019-04-29T16:11:46.425Z,9.60
2019-04-29T16:14:29.306Z,7.47
2019-04-29T16:17:11.592Z,11.53
2019-04-29T16:19:53.433Z,12.73
2019-04-29T16:22:39.036Z,14.87
2019-04-29T16:25:19.105Z,25.27
2019-04-29T16:28:00.769Z,6.73
2019-04-29T16:30:42.941Z,9.37
2019-04-29T16:33:15.438Z,16.23
2019-04-29T16:35:51.555Z,8.73
2019-04-29T16:38:46.298Z,7.57
2019-04-29T16:41:51.110Z,6.53
2019-04-29T16:44:35.952Z,15.00
2019-04-29T16:47:16.919Z,9.10
2019-04-29T16:50:04.849Z,8.80
2019-04-29T16:52:44.588Z,16.77
2019-04-29T16:55:27.182Z,8.47
2019-04-29T16:58:17.806Z,16.00
2019-04-29T17:00:54.872Z,11.57
2019-04-29T17:03:36.963Z,13.33
2019-04-29T17:06:19.083Z,10.13
2019-04-29T17:09:23.139Z,11.93
2019-04-29T17:12:11.535Z,18.47
2019-04-29T17:15:04.228Z,17.50
2019-04-29T17:17:36.843Z,14.47
2019-04-29T17:20:18.898Z,15.97
2019-04-29T17:23:02.882Z,12.47
2019-04-29T17:25:44.140Z,8.73
2019-04-29T17:32:00.597Z,13.40
2019-04-29T17:38:10.963Z,8.80
2019-04-29T17:40:53.364Z,7.77
2019-04-29T17:43:43.251Z,8.23
2019-04-29T17:52:37.493Z,5.77
2019-04-29T17:55:45.344Z,8.00
2019-04-29T17:58:43.897Z,7.03
2019-04-29T18:01:52.368Z,8.77
2019-04-29T18:04:57.231Z,8.37
2019-04-29T18:07:51.994Z,8.60
2019-04-29T18:10:46.392Z,18.10
2019-04-29T18:13:31.205Z,31.20
2019-04-29T18:16:18.929Z,23.50
2019-04-29T18:25:39.157Z,12.93
2019-04-29T18:28:21.627Z,8.43
2019-04-29T18:31:05.926Z,6.37
2019-04-29T18:33:48.041Z,7.27
2019-04-29T18:36:32.306Z,9.77
2019-04-29T18:42:03.084Z,11.00
2019-04-29T18:44:55.093Z,6.90
2019-04-29T18:47:27.579Z,7.90
2019-04-29T18:50:10.411Z,11.57
2019-04-29T18:52:53.453Z,7.43
2019-04-29T18:55:37.415Z,8.70
2019-04-29T18:58:20.208Z,7.77
2019-04-29T19:01:05.670Z,8.83
2019-04-29T19:04:10.153Z,9.13
2019-04-29T19:07:02.078Z,7.30
2019-04-29T19:14:45.327Z,7.43
2019-04-29T19:17:00.362Z,6.93
2019-04-29T19:19:30.695Z,7.10
2019-04-29T19:28:14.939Z,7.67
2019-04-29T19:30:56.067Z,8.37
2019-04-29T19:33:39.355Z,10.47
2019-04-29T19:36:23.017Z,7.93
2019-04-29T19:39:10.267Z,9.27
2019-04-29T19:42:29.078Z,8.80
2019-04-29T19:44:55.463Z,9.30
2019-04-29T19:47:28.055Z,10.00
2019-04-29T19:50:21.714Z,7.17
2019-04-29T19:52:52.311Z,6.83
2019-04-29T19:56:20.916Z,10.80
2019-04-29T19:58:57.324Z,8.33
2019-04-29T20:01:38.138Z,7.30
2019-04-29T20:04:39.733Z,7.80
2019-04-29T20:07:24.130Z,7.33
2019-04-29T20:10:10.222Z,7.83
2019-04-29T20:12:53.336Z,9.57
2019-04-29T20:15:39.138Z,15.80
2019-04-29T20:18:41.314Z,13.07
2019-04-29T20:21:29.328Z,11.20
2019-04-29T20:24:15.353Z,11.80
2019-04-29T20:26:54.389Z,17.17
2019-04-29T20:29:38.629Z,10.07
2019-04-29T20:32:30.189Z,9.23
2019-04-29T20:35:08.890Z,9.27
2019-04-29T20:37:55.690Z,9.30
2019-04-29T20:40:42.844Z,11.07
2019-04-29T20:44:16.316Z,12.43
2019-04-29T20:47:13.914Z,9.80
2019-04-29T20:49:30.888Z,11.10
2019-04-29T20:52:40.839Z,12.80
2019-04-29T20:55:27.024Z,11.80
2019-04-29T20:57:57.591Z,12.90
2019-04-29T21:00:29.605Z,14.50
2019-04-29T21:03:04.288Z,11.50
2019-04-29T21:05:45.244Z,10.03
2019-04-29T21:08:14.294Z,11.43
2019-04-29T21:10:48.232Z,12.07
2019-04-29T21:13:43.382Z,12.33
2019-04-29T21:16:22.867Z,11.33
2019-04-29T21:19:08.774Z,11.77
2019-04-29T21:21:50.754Z,14.13
2019-04-29T21:24:35.172Z,14.73
2019-04-29T21:27:22.150Z,11.73
2019-04-29T21:30:00.661Z,13.00
2019-04-29T21:32:42.905Z,12.43
2019-04-29T21:35:45.446Z,11.73
2019-04-29T21:44:42.502Z,13.73
2019-04-29T21:47:26.826Z,14.93
2019-04-29T21:50:08.235Z,15.37
2019-04-29T21:52:55.286Z,14.37
